• Join FlightAware (Why Join?)
  • Login
  • US Flag 
09:36AM EDT


 

Airport Tracker/Info


-or-


 

Live Flight TrackerFlight Track Log ✈ ASQ5685 ✈ 22-Sep-2013 ✈ KATL - KIAD

Flight Track Log - Related Links

Times and Time Zones

All times are in EDT time to prevent confusion due to time zone crossing. See the ASQ5685 flight status page for this flight to view local times or setup timezone preferences in your user account.

Time Position Orientation Groundspeed Altitude Reporting Facility
EDT Latitude Longitude Course Direction KTS MPH feet Rate Location/Type
09:37AM 33.6286 -84.4878 68° East 387 445 2,400  Level Atlanta Center
09:38AM 33.5969 -84.5625 243° Southwest 308 354 3,900 1,920 Climbing Atlanta Center
09:39AM 33.5258 -84.5869 196° South 249 287 6,300 2,340 Climbing Atlanta Center
09:40AM 33.9436 -84.0627 53° Northeast  Level Estimated
09:40AM 33.4614 -84.5442 151° Southeast 297 342 8,600  Level Atlanta Center
09:41AM 33.9838 -83.9419 68° East  Level FlightAware Approximate
09:41AM 33.4556 -84.4472 94° East 310 357 10,300  Level Atlanta Center
09:42AM 34.0239 -83.8211 68° East  Level FlightAware Approximate
09:42AM 33.4558 -84.3278 90° East 316 364 11,000  Level Atlanta Center
09:43AM 34.0639 -83.7001 68° East  Level FlightAware Approximate
09:43AM 33.5103 -84.2406 53° Northeast 321 369 12,400  Level Atlanta Center
09:44AM 33.5958 -84.1858 28° Northeast 323 372 13,700 1,140 Climbing Atlanta Center
09:45AM 33.6836 -84.1286 28° Northeast 344 396 14,700 1,020 Climbing Atlanta Center
09:46AM 33.7589 -84.0514 40° Northeast 356 410 15,800 1,080 Climbing Atlanta Center
09:47AM 33.8108 -83.9439 60° Northeast 356 410 16,900 1,020 Climbing Atlanta Center
09:48AM 33.8650 -83.8361 59° Northeast 370 426 17,900 1,020 Climbing Atlanta Center
09:49AM 33.9211 -83.7283 58° Northeast 370 426 19,000 900 Climbing Atlanta Center
09:50AM 33.9856 -83.6256 53° Northeast 382 440 19,700 660 Climbing Atlanta Center
09:51AM 34.0500 -83.5222 53° Northeast 382 440 20,400 660 Climbing Atlanta Center
09:52AM 34.1161 -83.4142 54° Northeast 390 449 21,100 600 Climbing Atlanta Center
09:53AM 34.1844 -83.3081 52° Northeast 390 449 21,700 600 Climbing Atlanta Center
09:54AM 34.2525 -83.1994 53° Northeast 390 449 22,300 600 Climbing Atlanta Center
09:55AM 34.3206 -83.0881 53° Northeast 396 456 22,900 540 Climbing Atlanta Center
09:56AM 34.3825 -82.9842 54° Northeast 408 470 23,400 480 Climbing Atlanta Center
09:57AM 34.4544 -82.8700 53° Northeast 424 488 23,900 480 Climbing Atlanta Center
09:58AM 34.5264 -82.7556 53° Northeast 424 488 24,400 480 Climbing Atlanta Center
09:59AM 34.6003 -82.6383 53° Northeast 429 494 24,900 540 Climbing Atlanta Center
10:00AM 34.6781 -82.5156 52° Northeast 429 494 25,500 540 Climbing Atlanta Center
10:01AM 34.7517 -82.3956 53° Northeast 429 494 26,000 480 Climbing Atlanta Center
10:02AM 34.8231 -82.2753 54° Northeast 434 499 26,500 480 Climbing Atlanta Center
10:03AM 34.8942 -82.1572 54° Northeast 434 499 27,000 240 Climbing Atlanta Center
10:04AM 34.9636 -82.0517 51° Northeast 434 499 27,000  Level Atlanta Center
10:05AM 35.0367 -81.9308 54° Northeast 448 516 27,000  Level Atlanta Center
10:06AM 35.1053 -81.7969 58° Northeast 454 522 27,000  Level Atlanta Center
10:07AM 35.1717 -81.6681 58° Northeast 454 522 27,000  Level Atlanta Center
10:08AM 35.2422 -81.5389 56° Northeast 454 522 27,000  Level Atlanta Center
10:09AM 35.3083 -81.4122 57° Northeast 449 517 27,000  Level Atlanta Center
10:10AM 35.3744 -81.2803 58° Northeast 449 517 27,000  Level Atlanta Center
10:11AM 35.4442 -81.1453 58° Northeast 456 525 27,000  Level Atlanta Center
10:12AM 35.5119 -81.0153 57° Northeast 456 525 27,000  Level Atlanta Center
10:13AM 35.5797 -80.8853 57° Northeast 456 525 27,000  Level Atlanta Center
10:14AM 35.6492 -80.7547 57° Northeast 456 525 27,000  Level Atlanta Center
10:15AM 35.7167 -80.6242 57° Northeast 451 519 27,000  Level Atlanta Center
10:16AM 35.7839 -80.4908 58° Northeast 456 525 27,000  Level Atlanta Center
10:19AM 35.9206 -80.2164 58° Northeast 448 516 27,000  Level Washington Center
10:20AM 35.9969 -80.0719 57° Northeast 448 516 27,000  Level Washington Center
10:21AM 36.0578 -79.9572 57° Northeast 443 510 27,000  Level Washington Center
10:22AM 36.1331 -79.8303 54° Northeast 443 510 27,000  Level Washington Center
10:23AM 36.2114 -79.6853 56° Northeast 459 528 27,000  Level Washington Center
10:24AM 36.2778 -79.5703 54° Northeast 459 528 27,000  Level Washington Center
10:25AM 36.3508 -79.4425 55° Northeast 449 517 27,000  Level Washington Center
10:26AM 36.4264 -79.2989 57° Northeast 444 511 27,000  Level Washington Center
10:27AM 36.4944 -79.1808 54° Northeast 449 517 27,000 -60 Level Washington Center
10:28AM 36.5669 -79.0575 54° Northeast 449 517 26,900 -600 Descending Washington Center
10:29AM 36.6483 -78.9108 55° Northeast 449 517 25,900 -960 Descending Washington Center
10:30AM 36.7231 -78.7689 57° Northeast 476 548 25,000 -480 Descending Washington Center
10:31AM 36.7978 -78.6292 56° Northeast 482 555 25,000  Level Washington Center
10:32AM 36.8556 -78.4836 64° Northeast 471 542 25,000  Level Washington Center
10:33AM 36.8719 -78.3206 83° East 458 527 25,000  Level Washington Center
10:34AM 36.8900 -78.1628 82° East 458 527 25,000  Level Washington Center
10:35AM 36.9078 -78.0181 81° East 466 536 25,000  Level Washington Center
10:36AM 36.9253 -77.8600 82° East 461 531 25,000 -360 Level Washington Center
10:37AM 36.9819 -77.7292 62° Northeast 437 503 24,300 -840 Descending Washington Center
10:38AM 37.1017 -77.6933 13° North 388 447 23,300 -900 Descending Washington Center
10:39AM 37.2272 -77.6628 11° North 411 473 22,600 -660 Descending Washington Center
10:40AM 37.3528 -77.6350 10° North 428 493 22,100 -300 Descending Washington Center
10:41AM 37.4786 -77.6042 11° North 443 510 22,000 -60 Descending Washington Center
10:42AM 37.6019 -77.5786 North 448 516 22,000 -180 Level Washington Center
10:43AM 37.7256 -77.5506 10° North 448 516 21,700 -1,980 Descending Washington Center
10:44AM 37.8364 -77.5244 11° North 431 496 18,100 -3,420 Descending Washington Center
10:45AM 37.9475 -77.4983 10° North 409 471 14,800 -3,060 Descending Washington Center
10:46AM 38.0500 -77.4772 North 395 455 12,100 -2,400 Descending Washington Center
10:47AM 38.1464 -77.4558 10° North 367 422 10,100 -1,080 Descending Washington Center
10:48AM 38.2261 -77.4233 18° North 327 376 10,000 -600 Descending Washington Center
10:49AM 38.2986 -77.4411 349° North 274 315 8,900 -1,200 Descending Washington Center
10:50AM 38.3778 -77.4483 356° North 274 315 7,700 -1,260 Descending Washington Center
10:51AM 38.4550 -77.4475 360° North 274 315 6,500 -1,260 Descending Washington Center
10:52AM 38.5300 -77.4469 360° North 274 315 5,300 -1,200 Descending Washington Center
10:53AM 38.5969 -77.4458 North 257 296 4,100 -1,200 Descending Washington Center
10:54AM 38.6636 -77.4447 North 244 281 3,000 -600 Descending Washington Center
10:55AM 38.7283 -77.4411 North 234 269 3,000 -120 Level Washington Center
10:56AM 38.7908 -77.4400 North 229 264 2,800 -600 Descending Washington Center
10:57AM 38.8667 -77.4333 North 150 173 1,600 -780 Descending Potomac TRACON
10:58AM 38.9000 -77.4333 360° North 137 158 1,000 -600 Descending Potomac TRACON